createdAt,value
2023-01-23T00:00:12.044Z,32.23
2023-01-23T00:02:40.219Z,29.87
2023-01-23T00:05:08.992Z,31.97
2023-01-23T00:07:37.132Z,32.33
2023-01-23T00:10:05.548Z,32.90
2023-01-23T00:12:35.032Z,32.57
2023-01-23T00:15:04.846Z,32.20
2023-01-23T00:17:34.068Z,31.70
2023-01-23T00:20:02.314Z,32.50
2023-01-23T00:22:30.442Z,30.57
2023-01-23T00:24:58.606Z,32.23
2023-01-23T00:27:26.748Z,32.10
2023-01-23T00:29:56.284Z,29.87
2023-01-23T00:32:24.455Z,31.33
2023-01-23T00:34:52.618Z,30.77
2023-01-23T00:37:20.792Z,31.13
2023-01-23T00:39:50.836Z,31.10
2023-01-23T00:42:20.368Z,32.80
2023-01-23T00:44:48.528Z,30.70
2023-01-23T00:47:18.001Z,31.77
2023-01-23T00:49:46.236Z,30.77
2023-01-23T00:52:14.375Z,32.47
2023-01-23T00:54:43.010Z,30.87
2023-01-23T00:57:11.171Z,29.93
2023-01-23T00:59:39.287Z,30.17
2023-01-23T01:02:07.703Z,31.10
2023-01-23T01:04:37.259Z,32.73
2023-01-23T01:07:05.385Z,31.50
2023-01-23T01:09:33.547Z,32.33
2023-01-23T01:12:01.702Z,31.00
2023-01-23T01:14:29.881Z,31.57
2023-01-23T01:16:58.685Z,31.80
2023-01-23T01:19:28.172Z,32.90
2023-01-23T01:21:57.666Z,31.67
2023-01-23T01:24:26.561Z,33.60
2023-01-23T01:26:54.733Z,31.67
2023-01-23T01:29:22.926Z,30.60
2023-01-23T01:31:51.116Z,28.57
2023-01-23T01:34:19.288Z,29.17
2023-01-23T01:36:47.442Z,29.33
2023-01-23T01:39:16.918Z,31.47
2023-01-23T01:41:45.167Z,30.03
2023-01-23T01:44:17.415Z,29.70
2023-01-23T01:46:46.733Z,29.03
2023-01-23T01:49:17.285Z,31.37
2023-01-23T01:51:47.367Z,29.17
2023-01-23T01:54:18.865Z,32.23
2023-01-23T01:56:49.010Z,31.57
2023-01-23T01:59:17.774Z,30.50
2023-01-23T02:01:47.790Z,30.60
2023-01-23T02:04:16.650Z,30.00
2023-01-23T02:06:45.337Z,29.20
2023-01-23T02:09:18.095Z,30.43
2023-01-23T02:11:47.640Z,31.70
2023-01-23T02:14:15.820Z,31.43
2023-01-23T02:16:50.150Z,29.07
2023-01-23T02:19:26.322Z,30.93
2023-01-23T02:21:56.307Z,27.73
2023-01-23T02:24:28.089Z,30.30
2023-01-23T02:26:57.808Z,30.00
2023-01-23T02:29:25.941Z,31.63
2023-01-23T02:31:56.174Z,30.53
2023-01-23T02:34:25.955Z,29.33
2023-01-23T02:36:54.161Z,30.03
2023-01-23T02:39:22.463Z,29.63
2023-01-23T02:41:51.673Z,30.90
2023-01-23T02:44:26.175Z,29.33
2023-01-23T02:46:54.510Z,30.03
2023-01-23T02:49:22.895Z,30.13
2023-01-23T02:51:51.226Z,30.20
2023-01-23T02:54:19.551Z,29.57
2023-01-23T02:56:47.713Z,29.87
2023-01-23T02:59:33.431Z,28.97
2023-01-23T03:02:04.041Z,30.23
2023-01-23T03:04:32.216Z,31.60
2023-01-23T03:07:00.342Z,30.10
2023-01-23T03:09:28.999Z,29.63
2023-01-23T03:11:57.211Z,31.37
2023-01-23T03:14:25.741Z,27.77
2023-01-23T03:16:55.137Z,33.00
2023-01-23T03:19:26.614Z,29.30
2023-01-23T03:21:55.241Z,32.17
2023-01-23T03:24:23.676Z,30.27
2023-01-23T03:26:52.361Z,29.80
2023-01-23T03:29:39.949Z,26.93
2023-01-23T03:32:08.397Z,28.17
2023-01-23T03:34:38.054Z,28.00
2023-01-23T03:37:07.853Z,30.73
2023-01-23T03:39:53.702Z,30.17
2023-01-23T03:42:22.101Z,29.30
2023-01-23T03:44:50.356Z,29.73
2023-01-23T03:47:18.510Z,29.77
2023-01-23T03:49:48.003Z,28.77
2023-01-23T03:52:16.168Z,28.27
2023-01-23T03:54:44.408Z,28.10
2023-01-23T03:57:12.697Z,29.23
2023-01-23T03:59:40.835Z,28.53
2023-01-23T04:02:09.009Z,28.27
2023-01-23T04:04:37.150Z,28.37
2023-01-23T04:07:07.255Z,27.07
2023-01-23T04:09:35.491Z,25.17
2023-01-23T04:12:03.684Z,27.90
2023-01-23T04:14:37.359Z,26.00
2023-01-23T04:17:05.732Z,26.07
2023-01-23T04:19:34.356Z,25.30
2023-01-23T04:22:02.793Z,26.43
2023-01-23T04:24:32.386Z,26.60
2023-01-23T04:27:00.578Z,24.87
2023-01-23T04:29:28.763Z,27.20
2023-01-23T04:31:56.965Z,23.73
2023-01-23T04:34:25.111Z,25.33
2023-01-23T04:36:53.251Z,25.07
2023-01-23T04:39:21.409Z,23.13
2023-01-23T04:41:50.959Z,23.73
2023-01-23T04:44:22.273Z,25.77
2023-01-23T04:46:50.785Z,25.17
2023-01-23T04:49:19.452Z,23.23
2023-01-23T04:51:48.257Z,25.57
2023-01-23T04:54:16.463Z,24.37
2023-01-23T04:56:44.683Z,24.60
2023-01-23T04:59:14.315Z,25.03
2023-01-23T05:01:42.490Z,24.93
2023-01-23T05:04:10.650Z,25.13
2023-01-23T05:06:38.781Z,24.00
2023-01-23T05:09:07.056Z,24.00
2023-01-23T05:11:35.226Z,25.00
2023-01-23T05:14:03.364Z,24.00
2023-01-23T05:16:32.835Z,22.87
2023-01-23T05:19:01.061Z,23.60
2023-01-23T05:21:29.222Z,24.77
2023-01-23T05:23:57.439Z,24.93
2023-01-23T05:26:25.731Z,22.23
2023-01-23T05:28:53.917Z,24.23
2023-01-23T05:31:22.186Z,22.93
2023-01-23T05:33:51.716Z,22.63
2023-01-23T05:36:19.867Z,22.20
2023-01-23T05:38:48.308Z,23.27
2023-01-23T05:41:16.505Z,21.00
2023-01-23T05:43:44.728Z,22.10
2023-01-23T05:46:12.923Z,22.67
2023-01-23T05:48:41.118Z,21.47
2023-01-23T05:51:10.769Z,21.87
2023-01-23T05:53:38.961Z,23.70
2023-01-23T05:56:07.994Z,23.47
2023-01-23T05:58:36.225Z,21.07
2023-01-23T06:01:04.477Z,22.03
2023-01-23T06:03:32.653Z,22.23
2023-01-23T06:06:02.687Z,22.13
2023-01-23T06:08:32.174Z,22.70
2023-01-23T06:11:00.469Z,21.37
2023-01-23T06:13:29.062Z,21.97
2023-01-23T06:15:58.091Z,21.90
2023-01-23T06:18:26.557Z,21.93
2023-01-23T06:20:59.096Z,21.13
2023-01-23T06:23:27.345Z,20.93
2023-01-23T06:26:00.769Z,23.47
2023-01-23T06:28:29.078Z,24.03
2023-01-23T06:30:57.334Z,23.00
2023-01-23T06:33:25.923Z,20.93
2023-01-23T06:35:58.492Z,22.30
2023-01-23T06:38:26.661Z,21.30
2023-01-23T06:40:54.918Z,22.17
2023-01-23T06:43:24.904Z,21.40
2023-01-23T06:45:53.338Z,23.70
2023-01-23T06:48:21.927Z,20.80
2023-01-23T06:50:50.379Z,21.17
2023-01-23T06:53:19.044Z,21.33
2023-01-23T06:55:47.281Z,22.03
2023-01-23T06:58:15.462Z,21.77
2023-01-23T07:00:45.169Z,20.33
2023-01-23T07:03:13.825Z,21.20
2023-01-23T07:05:43.379Z,21.70
2023-01-23T07:08:11.620Z,21.30
2023-01-23T07:10:39.974Z,20.50
2023-01-23T07:13:08.459Z,21.70
2023-01-23T07:15:36.612Z,20.17
2023-01-23T07:18:06.214Z,20.70
2023-01-23T07:20:34.377Z,21.50
2023-01-23T07:23:04.671Z,20.70
2023-01-23T07:25:32.999Z,20.20
2023-01-23T07:28:01.131Z,20.20
2023-01-23T07:30:29.408Z,20.53
2023-01-23T07:32:58.134Z,19.60
2023-01-23T07:35:28.153Z,19.63
2023-01-23T07:37:56.372Z,18.97
2023-01-23T07:40:24.727Z,19.33
2023-01-23T07:42:52.953Z,20.03
2023-01-23T07:45:21.134Z,20.63
2023-01-23T07:47:49.302Z,20.50
2023-01-23T07:50:18.028Z,21.20
2023-01-23T07:52:47.657Z,20.40
2023-01-23T07:55:15.831Z,18.63
2023-01-23T07:57:44.016Z,18.93
2023-01-23T08:00:12.605Z,19.43
2023-01-23T08:02:41.106Z,18.80
2023-01-23T08:05:09.657Z,19.50
2023-01-23T08:07:37.821Z,19.07
2023-01-23T08:10:08.204Z,18.70
2023-01-23T08:12:36.622Z,20.83
2023-01-23T08:15:04.904Z,19.27
2023-01-23T08:17:33.077Z,20.10
2023-01-23T08:20:01.231Z,18.10
2023-01-23T08:22:29.459Z,19.17
2023-01-23T08:24:57.681Z,18.97
2023-01-23T08:27:27.178Z,18.93
2023-01-23T08:29:55.333Z,18.60
2023-01-23T08:32:23.477Z,18.40
2023-01-23T08:34:51.647Z,19.07
2023-01-23T08:37:19.805Z,18.57
2023-01-23T08:39:47.952Z,19.07
2023-01-23T08:42:16.091Z,19.00
2023-01-23T08:44:45.604Z,18.10
2023-01-23T08:47:13.867Z,19.07
2023-01-23T08:49:42.005Z,18.50
2023-01-23T08:52:10.188Z,17.30
2023-01-23T08:54:38.372Z,18.47
2023-01-23T08:57:06.575Z,17.87
2023-01-23T08:59:34.753Z,17.40
2023-01-23T09:02:04.268Z,18.23
2023-01-23T09:04:32.591Z,17.20
2023-01-23T09:07:00.775Z,16.53
2023-01-23T09:09:30.618Z,16.70
2023-01-23T09:11:58.806Z,16.93
2023-01-23T09:14:26.982Z,16.27
2023-01-23T09:16:55.184Z,16.63
2023-01-23T09:19:24.752Z,16.83
2023-01-23T09:21:54.694Z,17.37
2023-01-23T09:24:22.841Z,16.73
2023-01-23T09:26:51.003Z,15.13
2023-01-23T09:29:19.140Z,15.40
2023-01-23T09:31:47.370Z,17.10
2023-01-23T09:34:17.183Z,16.03
2023-01-23T09:36:46.951Z,16.27
2023-01-23T09:39:15.165Z,17.33
2023-01-23T09:41:45.314Z,16.97
2023-01-23T09:44:16.969Z,15.50
2023-01-23T09:46:47.936Z,16.23
2023-01-23T09:49:21.155Z,14.57
2023-01-23T09:51:54.455Z,14.97
2023-01-23T09:54:30.213Z,15.93
2023-01-23T09:56:59.285Z,16.63
2023-01-23T09:59:31.295Z,14.97
2023-01-23T10:01:59.543Z,16.13
2023-01-23T10:04:27.756Z,15.63
2023-01-23T10:07:11.118Z,15.23
2023-01-23T10:09:46.492Z,15.13
2023-01-23T10:12:20.088Z,14.23
2023-01-23T10:15:00.145Z,13.70
2023-01-23T10:17:31.542Z,14.03
2023-01-23T10:20:11.723Z,14.50
2023-01-23T10:22:46.643Z,14.07
2023-01-23T10:25:17.823Z,15.43
2023-01-23T10:27:47.730Z,14.10
2023-01-23T10:30:20.504Z,15.03
2023-01-23T10:32:51.055Z,15.37
2023-01-23T10:35:20.644Z,15.30
2023-01-23T10:37:54.059Z,14.53
2023-01-23T10:40:44.111Z,15.33
2023-01-23T10:43:14.700Z,14.97
2023-01-23T10:45:42.976Z,14.93
2023-01-23T10:48:30.070Z,15.43
2023-01-23T10:50:58.310Z,15.57
2023-01-23T10:53:28.207Z,14.57
2023-01-23T10:55:57.416Z,15.50
2023-01-23T10:58:30.043Z,15.27
2023-01-23T11:00:58.398Z,15.33
2023-01-23T11:03:28.712Z,15.53
2023-01-23T11:05:57.425Z,15.20
2023-01-23T11:08:28.714Z,16.03
2023-01-23T11:11:13.318Z,14.43
2023-01-23T11:13:41.484Z,16.73
2023-01-23T11:16:10.197Z,15.60
2023-01-23T11:18:43.020Z,14.97
2023-01-23T11:21:21.544Z,15.30
2023-01-23T11:23:51.066Z,15.23
2023-01-23T11:26:32.468Z,14.47
2023-01-23T11:29:00.655Z,14.73
2023-01-23T11:31:29.183Z,15.60
2023-01-23T11:33:59.397Z,15.20
2023-01-23T11:36:52.684Z,15.33
2023-01-23T11:39:28.560Z,15.63
2023-01-23T11:41:56.721Z,16.20
2023-01-23T11:44:25.514Z,15.20
2023-01-23T11:47:02.429Z,15.50
2023-01-23T11:49:39.139Z,14.70
2023-01-23T11:52:14.802Z,15.17
2023-01-23T11:54:55.163Z,16.43
2023-01-23T11:57:25.554Z,16.23
2023-01-23T12:00:06.593Z,16.27
2023-01-23T12:02:52.827Z,16.30
2023-01-23T12:05:28.781Z,15.90
2023-01-23T12:08:05.002Z,15.77
2023-01-23T12:10:37.756Z,15.10
2023-01-23T12:13:13.287Z,14.90
2023-01-23T12:15:45.446Z,14.73
2023-01-23T12:18:18.996Z,14.43
2023-01-23T12:20:54.320Z,14.83
2023-01-23T12:23:27.432Z,15.17
2023-01-23T12:26:02.529Z,14.80
2023-01-23T12:28:39.178Z,15.10
2023-01-23T12:31:13.219Z,14.37
2023-01-23T12:33:53.245Z,15.00
2023-01-23T12:36:29.942Z,16.13
2023-01-23T12:39:01.331Z,15.70
2023-01-23T12:41:36.337Z,15.23
2023-01-23T12:44:06.921Z,15.27
2023-01-23T12:46:37.504Z,14.73
2023-01-23T12:49:15.113Z,14.73
2023-01-23T12:51:44.722Z,14.57
2023-01-23T12:54:16.403Z,14.87
2023-01-23T12:56:46.649Z,14.33
2023-01-23T12:59:19.536Z,14.63
2023-01-23T13:01:52.181Z,14.00
2023-01-23T13:04:30.172Z,15.90
2023-01-23T13:07:03.503Z,15.27
2023-01-23T13:09:40.037Z,14.37
2023-01-23T13:12:22.172Z,14.80
2023-01-23T13:15:12.830Z,14.90
2023-01-23T13:17:40.204Z,13.90
2023-01-23T13:20:39.453Z,14.27
2023-01-23T13:23:24.067Z,14.53
2023-01-23T13:25:52.879Z,14.17
2023-01-23T13:28:44.028Z,14.27
2023-01-23T13:31:25.801Z,15.17
2023-01-23T13:33:58.796Z,13.77
2023-01-23T13:36:40.897Z,14.60
2023-01-23T13:39:24.003Z,14.60
2023-01-23T13:41:53.456Z,14.20
2023-01-23T13:44:40.306Z,13.67
2023-01-23T14:21:42.438Z,13.50
2023-01-23T14:24:21.431Z,13.87
2023-01-23T14:26:50.556Z,13.87
2023-01-23T14:29:22.593Z,12.93
2023-01-23T14:31:51.910Z,13.13
2023-01-23T14:34:21.240Z,13.03
2023-01-23T14:36:52.794Z,13.63
2023-01-23T14:39:22.422Z,13.07
2023-01-23T14:41:51.168Z,13.07
2023-01-23T14:44:21.631Z,13.27
2023-01-23T14:46:52.729Z,12.73
2023-01-23T14:49:25.260Z,12.70
2023-01-23T14:51:59.547Z,13.43
2023-01-23T14:54:32.931Z,12.07
2023-01-23T14:57:04.426Z,12.87
2023-01-23T14:59:34.564Z,12.40
2023-01-23T15:02:13.046Z,12.47
2023-01-23T15:04:44.563Z,11.63
2023-01-23T15:07:16.914Z,12.53
2023-01-23T15:09:46.456Z,11.53
2023-01-23T15:12:17.827Z,11.83
2023-01-23T15:14:46.426Z,12.40
2023-01-23T15:17:16.251Z,12.13
2023-01-23T15:19:45.292Z,11.57
2023-01-23T15:22:20.354Z,13.03
2023-01-23T15:24:48.578Z,12.97
2023-01-23T15:27:27.079Z,12.40
2023-01-23T15:30:10.173Z,12.97
2023-01-23T15:32:40.577Z,12.33
2023-01-23T15:35:16.529Z,12.47
2023-01-23T15:37:49.547Z,12.00
2023-01-23T15:40:18.720Z,12.77
2023-01-23T15:43:01.849Z,11.80
2023-01-23T15:45:29.981Z,12.50
2023-01-23T15:47:58.132Z,13.20
2023-01-23T15:50:27.178Z,12.20
2023-01-23T15:52:57.519Z,12.33
2023-01-23T15:55:26.913Z,11.77
2023-01-23T15:57:55.289Z,12.43
2023-01-23T16:00:25.680Z,12.17
2023-01-23T16:02:57.402Z,11.63
2023-01-23T16:05:26.795Z,10.67
2023-01-23T16:07:55.640Z,11.27
2023-01-23T16:10:26.364Z,11.37
2023-01-23T16:12:55.269Z,12.27
2023-01-23T16:15:24.462Z,11.83
2023-01-23T16:17:53.267Z,11.90
2023-01-23T16:20:22.286Z,11.63
2023-01-23T16:22:52.179Z,12.00
2023-01-23T16:25:22.387Z,11.47
2023-01-23T16:27:53.043Z,11.77
2023-01-23T16:30:21.632Z,11.30
2023-01-23T16:32:50.101Z,12.43
2023-01-23T16:35:18.313Z,11.70
2023-01-23T16:37:48.037Z,11.90
2023-01-23T16:40:16.974Z,11.20
2023-01-23T16:42:45.768Z,11.67
2023-01-23T16:45:19.595Z,11.43
2023-01-23T16:47:47.902Z,11.97
2023-01-23T16:50:16.812Z,12.33
2023-01-23T16:52:46.785Z,12.37
2023-01-23T16:55:20.553Z,12.40
2023-01-23T16:57:49.596Z,12.53
2023-01-23T17:00:33.476Z,11.83
2023-01-23T17:03:03.556Z,10.83
2023-01-23T17:05:32.039Z,11.63
2023-01-23T17:08:00.403Z,12.60
2023-01-23T17:10:41.238Z,11.40
2023-01-23T17:13:14.865Z,11.53
2023-01-23T17:15:44.448Z,12.80
2023-01-23T17:18:18.500Z,11.53
2023-01-23T17:20:46.663Z,12.40
2023-01-23T17:23:15.378Z,12.27
2023-01-23T17:25:59.203Z,11.37
2023-01-23T17:28:28.378Z,11.07
2023-01-23T17:31:00.283Z,12.80
2023-01-23T17:33:31.111Z,10.97
2023-01-23T17:35:59.759Z,11.43
2023-01-23T17:38:31.692Z,12.33
2023-01-23T17:40:59.817Z,11.13
2023-01-23T17:43:28.991Z,12.07
2023-01-23T17:45:58.677Z,17.73
2023-01-23T17:48:28.269Z,11.67
2023-01-23T17:50:56.603Z,12.37
2023-01-23T17:53:24.820Z,11.63
2023-01-23T17:55:53.587Z,11.90
2023-01-23T17:58:22.183Z,12.87
2023-01-23T18:00:52.251Z,11.70
2023-01-23T18:03:24.536Z,12.27
2023-01-23T18:05:52.778Z,12.50
2023-01-23T18:08:22.571Z,11.57
2023-01-23T18:10:52.686Z,13.53
2023-01-23T18:13:24.026Z,13.10
2023-01-23T18:15:58.295Z,12.70
2023-01-23T18:18:30.786Z,13.93
2023-01-23T18:20:59.582Z,12.33
2023-01-23T18:23:28.654Z,13.20
2023-01-23T18:25:59.920Z,12.60
2023-01-23T18:28:29.106Z,12.47
2023-01-23T18:31:00.749Z,12.07
2023-01-23T18:33:47.502Z,12.00
2023-01-23T18:36:20.493Z,13.03
2023-01-23T18:39:01.210Z,12.47
2023-01-23T18:41:30.180Z,11.67
2023-01-23T18:44:04.785Z,14.07
2023-01-23T18:46:33.259Z,12.70
2023-01-23T18:49:03.263Z,12.07
2023-01-23T18:51:38.369Z,11.90
2023-01-23T18:54:13.802Z,11.77
2023-01-23T18:56:45.877Z,11.60
2023-01-23T18:59:18.208Z,12.63
2023-01-23T19:01:53.337Z,12.00
2023-01-23T19:04:31.316Z,11.83
2023-01-23T19:06:59.830Z,11.90
2023-01-23T19:09:30.673Z,11.83
2023-01-23T19:12:02.965Z,12.20
2023-01-23T19:14:43.770Z,12.47
2023-01-23T19:17:14.705Z,12.20
2023-01-23T19:19:50.205Z,11.90
2023-01-23T19:22:19.827Z,12.67
2023-01-23T19:24:48.244Z,12.37
2023-01-23T19:27:21.715Z,12.10
2023-01-23T19:29:50.123Z,11.57
2023-01-23T19:32:18.554Z,12.30
2023-01-23T19:34:48.124Z,12.27
2023-01-23T19:37:16.387Z,12.27
2023-01-23T19:39:44.628Z,11.47
2023-01-23T19:42:16.380Z,12.27
2023-01-23T19:44:44.663Z,12.40
2023-01-23T19:47:12.876Z,13.20
2023-01-23T19:49:41.062Z,13.33
2023-01-23T19:52:13.771Z,13.73
2023-01-23T19:54:41.903Z,13.00
2023-01-23T19:57:10.049Z,11.97
2023-01-23T19:59:38.217Z,13.57
2023-01-23T20:02:17.736Z,13.43
2023-01-23T20:04:45.913Z,12.77
2023-01-23T20:07:15.457Z,13.83
2023-01-23T20:09:43.574Z,13.83
2023-01-23T20:12:13.124Z,12.53
2023-01-23T20:14:41.263Z,12.40
2023-01-23T20:17:09.456Z,11.97
2023-01-23T20:19:37.605Z,13.20
2023-01-23T20:22:05.738Z,13.07
2023-01-23T20:24:35.226Z,13.40
2023-01-23T20:27:03.431Z,13.77
2023-01-23T20:29:31.962Z,13.73
2023-01-23T20:32:00.313Z,13.40
2023-01-23T20:34:28.483Z,15.20
2023-01-23T20:36:56.612Z,14.03
2023-01-23T20:39:24.835Z,13.70
2023-01-23T20:41:54.340Z,15.70
2023-01-23T20:44:22.616Z,15.30
2023-01-23T20:46:50.887Z,14.27
2023-01-23T20:49:19.048Z,14.13
2023-01-23T20:51:47.190Z,15.47
2023-01-23T20:54:14.360Z,16.57
2023-01-23T20:56:43.856Z,15.70
2023-01-23T20:59:23.836Z,15.27
2023-01-23T21:02:09.524Z,15.70
2023-01-23T21:04:39.557Z,15.63
2023-01-23T21:07:07.853Z,15.23
2023-01-23T21:09:36.032Z,16.13
2023-01-23T21:12:04.195Z,14.50
2023-01-23T21:14:34.605Z,15.67
2023-01-23T21:17:05.184Z,15.27
2023-01-23T21:19:33.620Z,15.97
2023-01-23T21:22:01.824Z,14.53
2023-01-23T21:24:34.190Z,15.60
2023-01-23T21:27:02.724Z,15.53
2023-01-23T21:29:31.070Z,15.33
2023-01-23T21:32:00.732Z,15.57
2023-01-23T21:34:28.934Z,15.13
2023-01-23T21:36:57.079Z,15.10
2023-01-23T21:39:25.239Z,16.20
2023-01-23T21:41:53.403Z,15.07
2023-01-23T21:44:21.558Z,15.00
2023-01-23T21:46:50.094Z,15.83
2023-01-23T21:49:19.970Z,14.87
2023-01-23T21:51:48.091Z,15.60
2023-01-23T21:54:16.347Z,15.53
2023-01-23T21:56:44.526Z,15.27
2023-01-23T21:59:12.953Z,14.43
2023-01-23T22:01:42.688Z,15.77
2023-01-23T22:04:13.916Z,14.00
2023-01-23T22:06:44.106Z,15.83
2023-01-23T22:09:15.509Z,14.70
2023-01-23T22:11:43.732Z,14.33
2023-01-23T22:14:11.895Z,14.80
2023-01-23T22:16:48.513Z,14.20
2023-01-23T22:19:18.467Z,15.20
2023-01-23T22:21:48.226Z,14.17
2023-01-23T22:24:16.478Z,13.97
2023-01-23T22:26:44.767Z,13.60
2023-01-23T22:29:13.672Z,15.53
2023-01-23T22:31:41.913Z,13.60
2023-01-23T22:34:10.173Z,14.87
2023-01-23T22:36:38.383Z,15.20
2023-01-23T22:39:07.987Z,15.10
2023-01-23T22:41:36.151Z,13.40
2023-01-23T22:44:04.324Z,13.27
2023-01-23T22:46:32.910Z,12.90
2023-01-23T22:49:01.325Z,14.43
2023-01-23T22:51:29.928Z,13.57
2023-01-23T22:53:58.724Z,12.83
2023-01-23T22:56:29.238Z,13.27
2023-01-23T22:58:57.926Z,13.77
2023-01-23T23:01:27.026Z,13.80
2023-01-23T23:03:55.541Z,13.07
2023-01-23T23:06:23.742Z,13.40
2023-01-23T23:08:52.004Z,14.20
2023-01-23T23:11:21.263Z,12.93
2023-01-23T23:13:51.428Z,13.87
2023-01-23T23:16:21.876Z,13.93
2023-01-23T23:18:51.287Z,13.40
2023-01-23T23:21:20.964Z,13.30
2023-01-23T23:23:49.394Z,13.97
2023-01-23T23:26:22.267Z,14.03
2023-01-23T23:28:51.834Z,13.47
2023-01-23T23:31:20.152Z,13.57
2023-01-23T23:33:48.378Z,13.27
2023-01-23T23:36:16.610Z,12.63
2023-01-23T23:38:44.763Z,13.13
2023-01-23T23:41:13.936Z,13.27
2023-01-23T23:43:42.101Z,12.57
2023-01-23T23:46:12.252Z,12.93
2023-01-23T23:48:40.696Z,14.03
2023-01-23T23:51:09.914Z,12.57
2023-01-23T23:53:38.305Z,12.67
2023-01-23T23:56:07.120Z,12.80
2023-01-23T23:58:36.854Z,12.70
